Kernan, Illinois
Current Conditions -  °F | °C
As of 2:55 AM on Thursday 23 Oct 2014 (Local Time) from KPNT Reporting Station
Clear Clear  
Wind Chill: 27°   Ceiling: Unl
Heat Index: 33°   Visibility: 7mi
Dew Point: 32°   Wind: 7mph
Humidity: 96%   Direction: 120°ESE
Pressure: 30.24"   Gusts: NA
Location:  41.1182°N, 88.8294°W
Report Text: KPNT 230755Z AUTO 12006KT 7SM CLR 01/00 A3024 RMK AO2 T00060001
Loading
Personal Weather Stations






























Interactive Weather Map
Tropical Storm Tracking
New forecast layout! Learn more

10-Day Weather Forecast

Advertisements
Track Severe Weather on mobile